Time;durP1;ratioP1;P1;durP2;ratioP2;P2;SDS_P1;SDS_P2;PMS_P1;PMS_P2;Temp;Humidity;BMP_temperature;BMP_pressure;BME280_temperature;BME280_humidity;BME280_pressure;Samples;Min_cycle;Max_cycle;Signal;HPM_P1;HPM_P2
2023/07/04 00:01:24;;;;;;;9.18;8.07;;;;;;;21.71;47.03;98849.81;5127978;28;20054;-72
2023/07/04 00:03:53;;;;;;;10.77;8.35;;;;;;;21.77;47.00;98859.94;5125608;27;20043;-72
2023/07/04 00:06:20;;;;;;;11.25;7.72;;;;;;;21.82;46.93;98850.53;5126761;28;20040;-72
2023/07/04 00:08:48;;;;;;;11.90;8.45;;;;;;;21.81;47.33;98841.59;5127685;28;20047;-73
2023/07/04 00:11:14;;;;;;;10.93;8.07;;;;;;;21.81;47.63;98851.56;5127712;28;20051;-72
2023/07/04 00:13:41;;;;;;;10.02;8.55;;;;;;;21.85;47.45;98845.66;5127363;28;20047;-72
2023/07/04 00:16:11;;;;;;;10.68;8.30;;;;;;;21.75;47.76;98851.19;5127674;28;20050;-72
2023/07/04 00:18:38;;;;;;;14.60;9.07;;;;;;;21.85;47.40;98848.34;5127188;28;20035;-72
2023/07/04 00:21:07;;;;;;;11.32;8.48;;;;;;;20.99;47.37;98705.84;5126365;28;20046;-72
2023/07/04 00:23:35;;;;;;;10.27;8.85;;;;;;;21.82;47.01;98854.06;5127438;28;20130;-72
2023/07/04 00:26:03;;;;;;;10.20;7.90;;;;;;;21.73;47.00;98842.41;5126816;28;20043;-71
2023/07/04 00:28:30;;;;;;;12.18;8.82;;;;;;;21.85;46.87;98851.03;5127406;28;20302;-71
2023/07/04 00:30:57;;;;;;;12.70;8.82;;;;;;;21.81;47.17;98847.00;5127280;28;20043;-72
2023/07/04 00:33:27;;;;;;;10.57;7.72;;;;;;;21.82;47.03;98851.38;5127001;28;20052;-71
2023/07/04 00:35:59;;;;;;;11.07;8.27;;;;;;;21.74;47.01;98849.50;5126200;28;20046;-71
2023/07/04 00:38:26;;;;;;;10.35;8.35;;;;;;;21.88;46.99;98845.31;5127116;28;20306;-72
2023/07/04 00:40:54;;;;;;;10.88;7.85;;;;;;;21.74;47.09;98846.78;5127135;28;20036;-72
2023/07/04 00:43:22;;;;;;;9.50;7.20;;;;;;;21.80;47.04;98856.09;5126239;28;20036;-72
2023/07/04 00:45:56;;;;;;;10.77;7.60;;;;;;;21.77;47.17;98851.00;5125964;28;20051;-72
2023/07/04 00:48:26;;;;;;;10.95;7.65;;;;;;;21.75;47.59;98847.63;5125886;28;20093;-72
2023/07/04 00:51:02;;;;;;;13.05;8.60;;;;;;;21.78;47.72;98858.94;5127515;28;20052;-72
2023/07/04 00:53:29;;;;;;;10.10;7.88;;;;;;;21.76;47.96;98847.47;5126976;28;20048;-72
2023/07/04 00:55:56;;;;;;;10.73;7.90;;;;;;;21.83;47.99;98852.22;5126655;28;20058;-72
2023/07/04 00:58:23;;;;;;;10.38;7.90;;;;;;;21.84;47.81;98856.59;5126801;28;20054;-72
2023/07/04 01:00:50;;;;;;;9.52;8.05;;;;;;;21.78;47.74;98861.63;5126572;28;20043;-72
2023/07/04 01:03:20;;;;;;;10.93;8.52;;;;;;;21.82;47.58;98864.03;5125668;28;20067;-72
2023/07/04 01:05:56;;;;;;;10.57;7.95;;;;;;;21.60;48.10;98839.38;5126475;28;20119;-72
2023/07/04 01:08:27;;;;;;;11.25;8.38;;;;;;;21.73;48.47;98858.59;5126157;28;20035;-72
2023/07/04 01:10:56;;;;;;;9.85;7.50;;;;;;;21.73;48.34;98869.38;5126106;28;20040;-72
2023/07/04 01:13:33;;;;;;;12.10;8.93;;;;;;;21.79;48.21;98870.56;5125782;28;20191;-72
2023/07/04 01:16:01;;;;;;;10.75;8.63;;;;;;;21.43;47.74;98816.09;5126599;28;20051;-73
2023/07/04 01:18:28;;;;;;;9.55;7.60;;;;;;;21.74;47.67;98864.81;5126449;28;20043;-71
2023/07/04 01:20:57;;;;;;;10.73;8.23;;;;;;;21.76;48.05;98869.03;5125409;28;20031;-72
2023/07/04 01:23:31;;;;;;;9.57;8.05;;;;;;;21.82;47.77;98862.16;5125399;28;20040;-72
2023/07/04 01:26:12;;;;;;;11.07;7.75;;;;;;;21.80;47.92;98874.13;5126154;28;20051;-72
2023/07/04 01:28:41;;;;;;;9.50;7.45;;;;;;;21.74;48.26;98872.91;5126208;28;20103;-72
2023/07/04 01:31:08;;;;;;;13.20;8.15;;;;;;;21.28;48.48;98799.72;5126410;28;20123;-71
2023/07/04 01:33:34;;;;;;;9.85;7.43;;;;;;;21.65;48.74;98871.22;5125820;28;20104;-72
2023/07/04 01:36:02;;;;;;;9.50;7.63;;;;;;;21.62;48.53;98871.56;5126627;28;20043;-72
2023/07/04 01:38:30;;;;;;;10.40;7.93;;;;;;;21.67;48.20;98869.19;5124898;28;20070;-72
2023/07/04 01:40:57;;;;;;;9.50;7.53;;;;;;;21.65;48.45;98874.75;5126337;28;20040;-72
2023/07/04 01:43:25;;;;;;;11.65;8.65;;;;;;;21.53;48.32;98875.25;5125177;28;20039;-72
2023/07/04 01:45:52;;;;;;;12.60;8.68;;;;;;;21.64;48.17;98874.94;5125176;28;20203;-72
2023/07/04 01:48:19;;;;;;;10.73;7.93;;;;;;;20.99;48.15;98775.06;5126521;28;20043;-72
2023/07/04 01:50:45;;;;;;;10.80;7.47;;;;;;;21.60;48.00;98878.97;5126222;28;20043;-72
2023/07/04 01:53:12;;;;;;;9.40;7.53;;;;;;;21.52;48.23;98878.97;5126492;28;20051;-72
2023/07/04 01:55:39;;;;;;;11.05;7.70;;;;;;;20.92;47.98;98771.34;5126174;28;20051;-72
2023/07/04 01:58:06;;;;;;;10.02;8.52;;;;;;;21.55;48.21;98879.47;5126194;28;20040;-73
2023/07/04 02:00:34;;;;;;;10.77;8.65;;;;;;;21.54;48.37;98887.72;5126073;28;20055;-73
2023/07/04 02:03:01;;;;;;;11.10;7.32;;;;;;;21.53;48.33;98888.72;5125535;28;20035;-72
2023/07/04 02:05:28;;;;;;;12.70;8.45;;;;;;;21.50;48.39;98892.59;5126114;28;20058;-72
2023/07/04 02:07:54;;;;;;;10.30;7.80;;;;;;;21.49;48.68;98884.69;5126345;28;20051;-71
2023/07/04 02:10:21;;;;;;;10.75;9.13;;;;;;;21.51;48.40;98885.34;5125761;28;20061;-72
2023/07/04 02:12:48;;;;;;;10.43;8.40;;;;;;;21.53;48.72;98888.72;5125678;28;20085;-72
2023/07/04 02:15:15;;;;;;;10.43;8.38;;;;;;;21.55;48.59;98889.41;5125975;28;20047;-72
2023/07/04 02:17:43;;;;;;;11.65;8.07;;;;;;;;;;5125916;28;20044;-71
2023/07/04 02:20:11;;;;;;;10.50;7.53;;;;;;;21.40;48.75;98895.44;5126150;28;20093;-73
2023/07/04 02:22:41;;;;;;;11.27;7.97;;;;;;;21.38;49.02;98897.47;5125946;28;20104;-72
2023/07/04 02:25:09;;;;;;;10.80;7.88;;;;;;;21.31;49.43;98906.38;5126183;28;20089;-72
2023/07/04 02:27:36;;;;;;;9.38;7.53;;;;;;;21.40;49.02;98917.00;5127587;28;20085;-72
2023/07/04 02:30:02;;;;;;;8.93;7.28;;;;;;;21.28;49.58;98920.16;5129775;28;20192;-73
2023/07/04 02:32:29;;;;;;;12.18;8.25;;;;;;;20.98;49.30;98878.44;5128358;28;20059;-73
2023/07/04 02:34:57;;;;;;;9.43;7.38;;;;;;;21.26;49.26;98920.31;5128832;28;20057;-73
2023/07/04 02:37:24;;;;;;;10.07;8.48;;;;;;;21.03;49.48;98894.97;5129635;28;20071;-72
2023/07/04 02:39:52;;;;;;;11.48;8.50;;;;;;;20.92;49.55;98868.31;5129736;28;20039;-72
2023/07/04 02:42:18;;;;;;;12.65;7.70;;;;;;;21.22;49.62;98929.75;5129406;28;20043;-73
2023/07/04 02:44:45;;;;;;;9.85;8.63;;;;;;;21.19;49.99;98943.53;5129969;27;20051;-73
2023/07/04 02:47:12;;;;;;;9.98;7.50;;;;;;;21.25;49.76;98942.06;5129164;28;20054;-73
2023/07/04 02:49:39;;;;;;;9.82;8.23;;;;;;;21.24;49.75;98948.44;5129671;28;20084;-73
2023/07/04 02:52:08;;;;;;;10.30;8.35;;;;;;;21.20;50.02;98953.31;5129612;28;20059;-73
2023/07/04 02:54:35;;;;;;;9.65;7.72;;;;;;;21.18;50.15;98949.94;5129618;28;20039;-73
2023/07/04 02:57:01;;;;;;;12.88;8.18;;;;;;;21.16;50.51;98954.66;5129245;28;20039;-73
2023/07/04 02:59:28;;;;;;;10.45;8.32;;;;;;;21.13;50.65;98953.13;5128865;28;20092;-72
2023/07/04 03:01:55;;;;;;;10.02;8.20;;;;;;;21.15;50.54;98955.66;5128040;28;20181;-73
2023/07/04 03:04:21;;;;;;;12.93;9.10;;;;;;;21.18;50.59;98958.03;5128858;28;20219;-73
2023/07/04 03:06:48;;;;;;;10.68;8.05;;;;;;;21.19;50.49;98948.94;5128797;28;20116;-73
2023/07/04 03:09:16;;;;;;;10.93;8.35;;;;;;;21.14;50.21;98938.63;5128206;28;20084;-73
2023/07/04 03:11:43;;;;;;;11.48;8.13;;;;;;;21.06;50.95;98944.00;5128986;28;20085;-73
2023/07/04 03:14:09;;;;;;;9.75;7.65;;;;;;;20.19;51.20;98796.91;5129184;28;20047;-73
2023/07/04 03:16:36;;;;;;;10.85;7.80;;;;;;;21.10;50.69;98945.34;5128891;28;20043;-73
2023/07/04 03:19:03;;;;;;;12.73;8.75;;;;;;;21.12;50.73;98950.59;5128757;28;20040;-73
2023/07/04 03:21:30;;;;;;;13.57;8.25;;;;;;;21.01;51.20;98937.38;5128188;28;20043;-73
2023/07/04 03:23:57;;;;;;;10.93;9.13;;;;;;;20.67;51.16;98887.03;5128745;28;20044;-73
2023/07/04 03:26:25;;;;;;;13.32;9.65;;;;;;;21.03;51.25;98935.38;5128399;28;20180;-73
2023/07/04 03:29:01;;;;;;;11.20;8.73;;;;;;;21.03;50.97;98935.38;5128631;28;20051;-73
2023/07/04 03:31:28;;;;;;;16.60;9.57;;;;;;;20.92;50.98;98917.63;5128603;28;20044;-73
2023/07/04 03:33:54;;;;;;;14.18;8.80;;;;;;;21.02;51.21;98934.53;5127170;28;20055;-73
2023/07/04 03:36:21;;;;;;;11.70;7.93;;;;;;;21.01;51.11;98940.06;5128486;28;20207;-73
2023/07/04 03:38:48;;;;;;;10.48;8.77;;;;;;;20.11;51.13;98783.41;5128033;28;20111;-73
2023/07/04 03:41:15;;;;;;;10.52;8.43;;;;;;;21.05;50.83;98938.75;5127232;28;20040;-73
2023/07/04 03:43:43;;;;;;;10.75;8.82;;;;;;;21.08;50.75;98946.53;5128251;28;20043;-74
2023/07/04 03:46:10;;;;;;;10.20;7.80;;;;;;;21.06;50.75;98949.38;5128269;28;20143;-73
2023/07/04 03:48:36;;;;;;;15.60;9.13;;;;;;;21.10;50.65;98956.13;5128231;28;20047;-73
2023/07/04 03:51:03;;;;;;;12.18;9.07;;;;;;;21.01;51.39;98951.69;5128180;28;20039;-73
2023/07/04 03:53:30;;;;;;;12.82;9.85;;;;;;;20.98;51.79;98943.91;5128441;28;20031;-73
2023/07/04 03:55:57;;;;;;;12.43;9.45;;;;;;;21.01;51.35;98940.91;5126967;28;20312;-73
2023/07/04 03:58:24;;;;;;;14.90;9.40;;;;;;;20.97;51.55;98952.16;5127807;28;20345;-73
2023/07/04 04:00:52;;;;;;;11.52;8.48;;;;;;;20.82;52.22;98955.44;5126824;28;20050;-72
2023/07/04 04:03:19;;;;;;;14.95;8.88;;;;;;;20.73;52.59;98953.72;5127653;28;20062;-73
2023/07/04 04:05:45;;;;;;;11.30;8.60;;;;;;;20.57;53.09;98964.38;5127827;28;20100;-73
2023/07/04 04:08:12;;;;;;;13.65;9.13;;;;;;;20.29;53.40;98915.22;5127038;28;20054;-73
2023/07/04 04:10:39;;;;;;;11.40;9.15;;;;;;;20.59;52.84;98927.38;5127771;28;20093;-73
2023/07/04 04:13:06;;;;;;;10.93;9.10;;;;;;;20.82;52.39;98960.84;5126665;28;20288;-73
2023/07/04 04:15:32;;;;;;;11.48;8.77;;;;;;;20.67;53.38;98962.41;5127686;28;20050;-73
2023/07/04 04:18:00;;;;;;;15.25;10.73;;;;;;;20.61;53.57;98981.91;5127685;27;20051;-73
2023/07/04 04:20:27;;;;;;;11.98;9.18;;;;;;;20.75;52.85;98973.25;5127810;28;20089;-73
2023/07/04 04:22:54;;;;;;;10.60;8.55;;;;;;;20.78;53.10;98977.47;5126445;28;20039;-73
2023/07/04 04:25:20;;;;;;;12.55;8.65;;;;;;;20.76;52.96;98979.47;5127774;28;20047;-73
2023/07/04 04:27:47;;;;;;;10.68;8.68;;;;;;;20.70;53.02;98978.25;5127448;28;20067;-73
2023/07/04 04:30:14;;;;;;;11.60;8.30;;;;;;;20.70;52.82;98983.66;5126303;28;20073;-73
2023/07/04 04:32:42;;;;;;;12.88;8.57;;;;;;;20.76;52.74;98988.41;5127051;28;20064;-73
2023/07/04 04:35:11;;;;;;;16.30;8.43;;;;;;;20.74;52.83;98994.94;5127624;28;20078;-72
2023/07/04 04:37:38;;;;;;;12.32;9.32;;;;;;;20.74;52.55;98990.41;5127235;28;20051;-72
2023/07/04 04:40:06;;;;;;;11.30;9.00;;;;;;;20.75;52.49;98993.94;5126034;28;20047;-73
2023/07/04 04:42:34;;;;;;;10.20;8.15;;;;;;;20.66;52.37;98982.28;5126007;28;20040;-72
2023/07/04 04:45:01;;;;;;;10.23;7.53;;;;;;;20.58;52.68;98994.84;5127129;28;20085;-73
2023/07/04 04:47:32;;;;;;;11.73;8.13;;;;;;;20.63;52.67;99004.13;5126582;28;20092;-73
2023/07/04 04:50:00;;;;;;;10.80;8.52;;;;;;;20.66;52.58;99005.66;5126710;28;20039;-73
2023/07/04 04:52:30;;;;;;;10.48;7.38;;;;;;;20.71;52.57;98997.97;5127308;28;20051;-73
2023/07/04 04:54:57;;;;;;;12.38;8.93;;;;;;;20.91;52.06;98998.59;5125885;28;20067;-73
2023/07/04 04:57:24;;;;;;;9.57;8.20;;;;;;;20.95;51.74;99000.81;5127122;28;20275;-73
2023/07/04 04:59:51;;;;;;;9.93;7.82;;;;;;;20.48;52.04;98920.41;5127083;28;20066;-73
2023/07/04 05:02:18;;;;;;;12.15;8.88;;;;;;;20.92;52.06;98994.91;5126889;28;20047;-73
2023/07/04 05:04:44;;;;;;;10.55;8.70;;;;;;;20.28;51.84;98910.84;5126731;28;20084;-73
2023/07/04 05:07:13;;;;;;;12.02;8.48;;;;;;;20.99;51.78;98995.94;5127014;28;20039;-73
2023/07/04 05:09:41;;;;;;;11.80;8.50;;;;;;;20.93;51.72;98994.72;5126970;28;20047;-73
2023/07/04 05:12:08;;;;;;;12.30;8.25;;;;;;;20.80;51.58;98984.38;5126984;28;20039;-73
2023/07/04 05:14:35;;;;;;;9.52;7.68;;;;;;;20.96;51.47;99005.19;5126608;28;20084;-73
2023/07/04 05:17:02;;;;;;;11.27;8.68;;;;;;;20.95;51.25;99003.50;5125504;28;20043;-72
2023/07/04 05:19:28;;;;;;;10.70;8.02;;;;;;;21.06;50.88;99005.97;5126435;28;20161;-73
2023/07/04 05:21:56;;;;;;;11.13;8.43;;;;;;;21.05;50.80;99003.44;5126817;28;20040;-72
2023/07/04 05:24:23;;;;;;;11.70;8.43;;;;;;;21.16;50.56;99007.69;5126184;28;20039;-73
2023/07/04 05:26:51;;;;;;;10.63;8.32;;;;;;;21.20;50.27;99014.44;5125299;28;20035;-73
2023/07/04 05:29:18;;;;;;;9.35;7.20;;;;;;;21.25;50.47;99017.50;5125326;28;20047;-73
2023/07/04 05:31:45;;;;;;;10.27;8.00;;;;;;;21.23;50.33;99020.38;5125060;28;20051;-73
2023/07/04 05:34:11;;;;;;;10.43;8.18;;;;;;;21.23;50.43;99020.38;5126376;28;20284;-72
2023/07/04 05:36:38;;;;;;;9.07;7.45;;;;;;;21.31;49.39;99024.97;5126362;28;20096;-73
2023/07/04 05:39:06;;;;;;;10.27;7.70;;;;;;;21.37;49.19;99027.00;5125801;28;20048;-73
2023/07/04 05:41:35;;;;;;;9.38;7.13;;;;;;;21.30;47.97;99025.97;5125526;28;20049;-72
2023/07/04 05:44:05;;;;;;;7.78;5.88;;;;;;;21.29;48.02;99027.81;5126517;28;20047;-72
2023/07/04 05:46:32;;;;;;;11.35;6.68;;;;;;;21.28;47.17;99028.81;5126209;28;20051;-73
2023/07/04 05:48:59;;;;;;;8.88;7.15;;;;;;;21.34;47.23;99024.63;5125432;28;20192;-73
2023/07/04 05:51:26;;;;;;;8.93;6.13;;;;;;;21.39;47.71;99028.53;5125206;28;20047;-72
2023/07/04 05:53:54;;;;;;;11.70;6.25;;;;;;;21.39;47.26;99025.84;5126187;28;20062;-73
2023/07/04 05:56:24;;;;;;;10.13;6.30;;;;;;;21.43;47.46;99023.66;5126150;28;20035;-73
2023/07/04 05:58:52;;;;;;;7.38;5.68;;;;;;;21.13;46.73;98979.22;5126332;28;20097;-73
2023/07/04 06:01:23;;;;;;;9.65;6.93;;;;;;;21.49;46.72;99016.78;5128711;28;20044;-73
2023/07/04 06:03:50;;;;;;;8.75;6.60;;;;;;;21.50;47.82;99023.88;5130163;28;20035;-73
2023/07/04 06:06:20;;;;;;;7.85;5.90;;;;;;;21.56;48.01;99020.53;5130204;28;20054;-73
2023/07/04 06:08:47;;;;;;;8.70;6.05;;;;;;;21.56;47.72;99024.06;5129610;28;20063;-73
2023/07/04 06:11:14;;;;;;;9.38;6.32;;;;;;;21.62;47.81;99017.16;5130054;28;20065;-72
2023/07/04 06:13:41;;;;;;;13.25;6.80;;;;;;;21.52;47.62;99005.66;5130408;28;20043;-73
2023/07/04 06:16:09;;;;;;;11.02;7.53;;;;;;;21.67;46.95;99020.22;5130293;28;20071;-73
2023/07/04 06:18:37;;;;;;;10.25;7.53;;;;;;;21.68;46.52;99019.22;5129866;28;20051;-72
2023/07/04 06:21:09;;;;;;;8.02;6.03;;;;;;;21.34;46.13;98966.19;5129776;28;20035;-73
2023/07/04 06:23:36;;;;;;;8.00;6.10;;;;;;;21.73;46.75;99019.56;5129879;28;20069;-72
2023/07/04 06:26:03;;;;;;;8.63;5.88;;;;;;;21.78;46.76;99019.91;5129918;28;20040;-73
2023/07/04 06:28:30;;;;;;;9.00;6.15;;;;;;;21.85;45.38;99017.44;5129559;27;20054;-73
2023/07/04 06:30:57;;;;;;;10.75;5.85;;;;;;;21.84;44.32;99011.19;5129683;28;20044;-73
2023/07/04 06:33:23;;;;;;;7.72;4.95;;;;;;;21.85;45.06;99018.28;5129371;28;20196;-73
2023/07/04 06:35:51;;;;;;;11.35;5.75;;;;;;;21.83;44.09;99020.31;5129577;28;20287;-73
2023/07/04 06:38:18;;;;;;;8.63;5.18;;;;;;;21.75;45.46;99007.59;5129917;28;20051;-72
2023/07/04 06:40:55;;;;;;;8.50;5.15;;;;;;;21.90;44.73;99021.34;5129157;28;20043;-73
2023/07/04 06:43:22;;;;;;;7.38;4.78;;;;;;;21.99;45.09;99020.34;5129169;28;20048;-73
2023/07/04 06:45:48;;;;;;;8.65;4.82;;;;;;;21.96;42.88;99030.63;5129516;28;20229;-73
2023/07/04 06:48:15;;;;;;;7.57;5.03;;;;;;;21.83;44.42;99000.59;5129387;28;20222;-73
2023/07/04 06:50:42;;;;;;;8.02;5.10;;;;;;;22.07;43.65;99028.47;5129085;28;20085;-73
2023/07/04 06:53:10;;;;;;;9.05;5.85;;;;;;;22.14;42.73;99025.94;5128987;27;20043;-73
2023/07/04 06:55:37;;;;;;;8.60;5.13;;;;;;;22.18;42.47;99026.47;5129000;28;20161;-73
2023/07/04 06:58:04;;;;;;;6.70;5.30;;;;;;;22.23;42.49;99021.41;5128922;28;20067;-72
2023/07/04 07:00:31;;;;;;;6.82;4.40;;;;;;;22.28;43.01;99022.59;5129029;28;20036;-73
2023/07/04 07:02:58;;;;;;;5.90;4.22;;;;;;;22.24;42.01;99028.50;5128950;28;20153;-73
2023/07/04 07:05:25;;;;;;;7.40;4.28;;;;;;;22.41;41.46;99019.44;5128798;28;20054;-73
2023/07/04 07:07:52;;;;;;;6.45;4.18;;;;;;;22.49;41.03;99030.22;5128830;28;20104;-73
2023/07/04 07:10:20;;;;;;;10.13;5.07;;;;;;;22.52;41.50;99024.50;5127769;28;20036;-72
2023/07/04 07:12:47;;;;;;;7.40;4.95;;;;;;;22.55;41.60;99020.66;5127856;28;20327;-73
2023/07/04 07:15:13;;;;;;;6.63;4.57;;;;;;;22.56;41.42;99017.78;5128457;28;20100;-73
2023/07/04 07:17:40;;;;;;;8.38;5.35;;;;;;;22.69;40.22;99014.56;5128752;28;20088;-73
2023/07/04 07:20:08;;;;;;;8.77;4.40;;;;;;;22.83;40.02;99013.88;5127518;28;20040;-73
2023/07/04 07:22:35;;;;;;;8.10;4.35;;;;;;;22.96;40.80;99016.03;5129089;28;20226;-72
2023/07/04 07:25:01;;;;;;;8.07;4.53;;;;;;;23.17;40.61;99021.75;5129234;28;20089;-73
2023/07/04 07:27:29;;;;;;;6.97;4.88;;;;;;;23.42;40.91;99022.53;5127545;28;20051;-73
2023/07/04 07:29:56;;;;;;;11.98;6.00;;;;;;;23.56;38.99;99011.00;5127556;28;20039;-73
2023/07/04 07:32:23;;;;;;;9.68;5.00;;;;;;;23.69;40.30;99011.25;5128301;28;20058;-73
2023/07/04 07:34:49;;;;;;;8.05;4.60;;;;;;;23.81;39.22;99005.47;5128442;28;20051;-73
2023/07/04 07:37:16;;;;;;;7.35;4.68;;;;;;;23.87;37.75;99008.28;5128172;28;20062;-73
2023/07/04 07:39:43;;;;;;;11.30;5.88;;;;;;;23.94;38.77;99006.56;5128411;28;20092;-73
2023/07/04 07:42:11;;;;;;;7.30;4.40;;;;;;;23.92;38.06;99005.91;5128000;28;20043;-73
2023/07/04 07:44:39;;;;;;;9.32;5.10;;;;;;;24.21;38.56;99004.38;5128445;28;20049;-73
2023/07/04 07:47:06;;;;;;;8.48;4.90;;;;;;;24.41;38.90;99005.59;5127219;28;20300;-73
2023/07/04 07:49:33;;;;;;;8.70;4.90;;;;;;;24.30;37.32;98981.66;5128565;28;20292;-73
2023/07/04 07:52:00;;;;;;;9.70;5.95;;;;;;;24.73;38.44;98999.09;5128204;28;20238;-73
2023/07/04 07:54:26;;;;;;;6.40;5.05;;;;;;;25.11;38.36;99001.78;5128146;28;20044;-73
2023/07/04 07:56:53;;;;;;;7.80;5.57;;;;;;;25.20;37.68;98997.97;5128079;28;20059;-73
2023/07/04 07:59:20;;;;;;;8.77;5.82;;;;;;;25.27;36.67;98991.59;5127717;27;20111;-73
2023/07/04 08:01:49;;;;;;;9.57;5.95;;;;;;;25.38;36.59;98994.91;5127578;28;20059;-73
2023/07/04 08:04:15;;;;;;;9.00;5.40;;;;;;;25.21;36.91;98983.38;5127899;28;20048;-73
2023/07/04 08:06:44;;;;;;;8.30;5.18;;;;;;;25.51;36.62;98995.06;5128113;27;20046;-72
2023/07/04 08:09:13;;;;;;;9.90;5.68;;;;;;;25.54;37.04;98991.97;5127585;28;20195;-72
2023/07/04 08:11:40;;;;;;;7.45;4.70;;;;;;;25.81;36.41;98977.72;5126497;28;20238;-72
2023/07/04 08:14:07;;;;;;;7.53;5.45;;;;;;;25.96;35.62;98982.25;5127710;28;20056;-73
2023/07/04 08:16:42;;;;;;;11.50;4.82;;;;;;;26.12;34.80;98965.75;5127641;28;20043;-73
2023/07/04 08:19:11;;;;;;;7.45;5.38;;;;;;;26.35;35.07;98971.81;5127306;28;20057;-73
2023/07/04 08:21:37;;;;;;;10.65;5.22;;;;;;;26.28;34.94;98979.06;5127182;28;20116;-72
2023/07/04 08:24:10;;;;;;;9.18;5.43;;;;;;;26.20;34.42;98979.19;5126479;27;20043;-72
2023/07/04 08:26:39;;;;;;;7.53;5.93;;;;;;;26.05;34.33;98981.13;5127445;28;20220;-73
2023/07/04 08:29:06;;;;;;;8.73;5.65;;;;;;;25.10;34.50;98881.66;5127264;28;20284;-73
2023/07/04 08:31:34;;;;;;;8.88;5.45;;;;;;;25.95;34.70;98975.97;5127546;27;20050;-73
2023/07/04 08:34:01;;;;;;;9.10;6.00;;;;;;;25.57;34.32;98954.47;5126223;28;20368;-72
2023/07/04 08:36:29;;;;;;;8.98;5.13;;;;;;;25.40;35.15;98982.84;5127243;28;20039;-73
2023/07/04 08:38:56;;;;;;;7.43;5.45;;;;;;;25.74;34.42;98976.78;5126846;28;20043;-73
2023/07/04 08:41:43;;;;;;;8.07;5.55;;;;;;;25.89;34.61;98985.75;5126820;28;20084;-72
2023/07/04 08:44:14;;;;;;;10.15;6.18;;;;;;;25.95;34.30;98970.56;5125969;28;20032;-73
2023/07/04 08:46:44;;;;;;;10.32;5.60;;;;;;;25.51;34.26;98895.53;5127033;28;20253;-73
2023/07/04 08:49:34;;;;;;;8.38;5.60;;;;;;;26.15;34.78;98977.06;5126416;28;20077;-72
2023/07/04 08:52:08;;;;;;;9.57;5.47;;;;;;;26.40;34.42;98982.94;5126997;28;20066;-73
2023/07/04 08:54:36;;;;;;;8.68;5.82;;;;;;;26.42;33.77;98986.31;5125927;28;20043;-73
2023/07/04 08:57:12;;;;;;;8.90;5.95;;;;;;;26.74;33.77;98975.94;5126560;28;20043;-73
2023/07/04 08:59:41;;;;;;;10.65;5.32;;;;;;;26.45;33.34;98987.78;5126447;28;20106;-73
2023/07/04 09:02:24;;;;;;;9.55;5.40;;;;;;;26.39;33.54;98992.13;5126344;28;20044;-73
2023/07/04 09:05:01;;;;;;;7.97;4.88;;;;;;;26.15;34.43;98987.94;5126768;27;20043;-73
2023/07/04 09:07:35;;;;;;;9.20;6.00;;;;;;;26.06;34.60;98990.97;5125615;28;20349;-72
2023/07/04 09:10:10;;;;;;;;;;;;;;;25.80;35.36;98994.19;5126695;28;20319;-72
2023/07/04 09:12:40;;;;;;;9.20;6.20;;;;;;;25.64;35.06;98995.25;5126877;28;19927;-73
2023/07/04 09:15:19;;;;;;;9.27;5.78;;;;;;;25.62;35.43;99000.03;5126579;28;20039;-73
2023/07/04 09:17:51;;;;;;;7.10;5.13;;;;;;;25.67;35.70;99013.88;5126050;28;20089;-72
2023/07/04 09:20:18;;;;;;;7.78;5.53;;;;;;;25.67;36.01;99008.44;5126464;28;20296;-73
2023/07/04 09:22:46;;;;;;;7.80;5.65;;;;;;;25.44;36.92;98997.69;5125604;28;20106;-72
2023/07/04 09:25:14;;;;;;;9.00;5.88;;;;;;;25.48;36.71;99004.44;5126142;28;20052;-72
2023/07/04 09:27:41;;;;;;;7.20;5.47;;;;;;;25.57;36.92;99007.88;5126644;28;20329;-73
2023/07/04 09:30:09;;;;;;;7.35;5.68;;;;;;;25.65;37.38;99009.66;5125210;28;20061;-73
2023/07/04 09:32:36;;;;;;;11.63;6.65;;;;;;;25.65;37.02;99006.94;5126242;28;20044;-73
2023/07/04 09:35:06;;;;;;;8.02;5.60;;;;;;;25.62;37.43;99013.59;5126056;28;20036;-73
2023/07/04 09:37:33;;;;;;;9.73;6.22;;;;;;;25.55;37.58;99015.38;5126433;28;20047;-73
2023/07/04 09:40:03;;;;;;;10.85;6.10;;;;;;;25.45;38.63;99012.94;5125200;28;20052;-73
2023/07/04 09:42:42;;;;;;;8.88;6.78;;;;;;;25.46;39.04;99013.78;5125869;28;20296;-73
2023/07/04 09:45:13;;;;;;;9.45;6.65;;;;;;;25.37;39.80;99014.91;5125174;28;20109;-73
2023/07/04 09:47:45;;;;;;;12.90;7.43;;;;;;;25.62;40.02;99008.16;5125888;28;20039;-73
2023/07/04 09:50:15;;;;;;;8.43;7.00;;;;;;;25.91;39.70;99018.97;5126450;28;20088;-73
2023/07/04 09:52:42;;;;;;;10.20;7.30;;;;;;;26.13;38.84;98998.13;5126210;28;20043;-73
2023/07/04 09:55:16;;;;;;;9.52;7.03;;;;;;;26.19;38.75;99007.41;5126043;28;20043;-73
2023/07/04 09:57:44;;;;;;;10.95;7.75;;;;;;;26.14;38.97;99001.69;5125615;28;20057;-73
2023/07/04 10:00:21;;;;;;;10.57;7.65;;;;;;;26.21;38.03;98986.31;5125029;28;20040;-72
2023/07/04 10:02:52;;;;;;;9.45;7.13;;;;;;;26.16;37.46;98996.91;5124755;28;20341;-73
2023/07/04 10:05:29;;;;;;;8.18;6.93;;;;;;;26.43;37.45;99001.56;5126059;28;20272;-73
2023/07/04 10:08:07;;;;;;;10.25;6.85;;;;;;;26.47;37.01;98985.72;5125803;28;20051;-73
2023/07/04 10:10:38;;;;;;;8.20;6.63;;;;;;;26.33;37.08;98944.00;5126214;28;20040;-73
2023/07/04 10:13:08;;;;;;;8.93;7.03;;;;;;;26.51;36.83;98944.38;5124695;28;20326;-73
2023/07/04 10:15:40;;;;;;;11.77;7.80;;;;;;;27.06;36.29;98983.50;5125921;28;20044;-73
2023/07/04 10:18:07;;;;;;;8.50;6.93;;;;;;;26.91;36.45;98971.91;5125510;28;20100;-73
2023/07/04 10:20:40;;;;;;;9.00;6.70;;;;;;;27.06;36.80;98975.34;5125901;28;20044;-73
2023/07/04 10:23:08;;;;;;;8.65;6.50;;;;;;;27.01;36.52;98977.81;5126052;28;20047;-73
2023/07/04 10:25:36;;;;;;;11.55;7.70;;;;;;;26.36;36.66;98888.44;5125854;28;20225;-73
2023/07/04 10:28:13;;;;;;;8.82;7.05;;;;;;;26.85;36.45;98973.53;5125660;28;20040;-73
2023/07/04 10:30:44;;;;;;;8.98;6.95;;;;;;;26.78;36.85;98978.06;5125855;28;20043;-74
2023/07/04 10:33:20;;;;;;;9.00;6.80;;;;;;;26.72;37.56;98975.31;5125340;28;20062;-72
2023/07/04 10:35:48;;;;;;;7.97;5.68;;;;;;;26.61;36.53;98975.84;5125616;28;20111;-73
2023/07/04 10:38:35;;;;;;;8.25;5.68;;;;;;;26.37;36.14;98975.19;5125712;28;20062;-73
2023/07/04 10:41:14;;;;;;;8.75;6.03;;;;;;;26.24;37.42;98950.63;5124367;28;20123;-74
2023/07/04 10:43:44;;;;;;;8.93;5.68;;;;;;;26.11;37.20;98916.03;5125297;28;20082;-75
2023/07/04 10:46:15;;;;;;;9.13;5.90;;;;;;;26.68;37.31;98958.56;5125445;28;20058;-75
2023/07/04 10:48:44;;;;;;;7.53;5.57;;;;;;;26.53;36.92;98961.31;5128541;28;20043;-75
2023/07/04 10:51:22;;;;;;;8.02;5.85;;;;;;;26.62;37.21;98964.78;5129121;28;20322;-75
2023/07/04 10:53:49;;;;;;;8.48;5.75;;;;;;;26.39;37.08;98945.94;5129562;28;20046;-76
2023/07/04 10:56:22;;;;;;;13.15;5.20;;;;;;;26.43;36.75;98960.81;5128204;28;20058;-76
2023/07/04 10:58:53;;;;;;;8.27;6.05;;;;;;;26.62;36.57;98963.94;5128935;28;20070;-76
2023/07/04 11:01:23;;;;;;;9.80;5.75;;;;;;;26.82;37.00;98971.19;5128795;28;20047;-76
2023/07/04 11:03:56;;;;;;;8.32;5.75;;;;;;;26.70;36.63;98967.34;5129104;28;20051;-76
2023/07/04 11:06:30;;;;;;;7.47;5.07;;;;;;;26.50;36.86;98961.72;5128264;28;20059;-76
2023/07/04 11:08:57;;;;;;;14.38;5.80;;;;;;;26.75;36.48;98961.31;5129301;28;20050;-75
2023/07/04 11:11:28;;;;;;;8.98;6.25;;;;;;;26.57;37.05;98920.16;5128972;28;20067;-76
2023/07/04 11:13:59;;;;;;;8.07;4.85;;;;;;;26.86;34.97;98950.72;5128740;28;20039;-76
2023/07/04 11:16:29;;;;;;;7.47;4.90;;;;;;;26.94;35.67;98963.34;5128320;28;20093;-76
2023/07/04 11:19:05;;;;;;;7.70;5.40;;;;;;;26.98;34.92;98956.47;5128867;28;20085;-76
2023/07/04 11:21:33;;;;;;;6.03;4.38;;;;;;;27.18;36.67;98954.69;5128623;28;20053;-76
2023/07/04 11:24:19;;;;;;;7.53;5.82;;;;;;;27.33;36.33;98946.44;5128729;28;20039;-76
2023/07/04 11:26:51;;;;;;;7.07;4.60;;;;;;;27.47;35.74;98955.50;5128367;28;20100;-76
2023/07/04 11:29:21;;;;;;;8.85;5.53;;;;;;;27.69;34.60;98931.75;5129296;28;20311;-75
2023/07/04 11:32:11;;;;;;;7.43;4.53;;;;;;;25.94;34.77;98666.69;5128007;28;20039;-76
2023/07/04 11:34:47;;;;;;;6.85;5.25;;;;;;;27.48;35.33;98947.13;5128786;28;20040;-75
2023/07/04 11:37:22;;;;;;;7.93;4.70;;;;;;;27.27;34.76;98941.81;5128747;28;20054;-76